Time;durP1;ratioP1;P1;durP2;ratioP2;P2;SDS_P1;SDS_P2;PMS_P1;PMS_P2;Temp;Humidity;BMP_temperature;BMP_pressure;BME280_temperature;BME280_humidity;BME280_pressure;Samples;Min_cycle;Max_cycle;Signal;HPM_P1;HPM_P2
2022/04/07 00:01:13;;;;;;;1.52;0.90;;;9.90;91.00;;;;;;5063337;28;20029;-83
2022/04/07 00:03:39;;;;;;;0.93;0.80;;;9.90;91.10;;;;;;5082244;28;20104;-82
2022/04/07 00:06:09;;;;;;;1.58;0.90;;;9.90;91.20;;;;;;5081250;28;20021;-83
2022/04/07 00:08:36;;;;;;;0.70;0.70;;;9.90;91.40;;;;;;5062240;28;20021;-83
2022/04/07 00:11:02;;;;;;;1.70;0.70;;;9.90;91.50;;;;;;5061023;28;20085;-82
2022/04/07 00:13:28;;;;;;;0.73;0.73;;;9.90;91.60;;;;;;5060678;28;20021;-83
2022/04/07 00:15:56;;;;;;;0.88;0.80;;;9.80;91.70;;;;;;5060426;28;20466;-83
2022/04/07 00:18:22;;;;;;;1.00;0.80;;;9.80;91.80;;;;;;5074721;28;20023;-82
2022/04/07 00:20:48;;;;;;;1.85;1.00;;;9.80;91.90;;;;;;5079847;28;20508;-82
2022/04/07 00:23:14;;;;;;;0.93;0.80;;;9.80;91.90;;;;;;5073073;28;20056;-82
2022/04/07 00:25:39;;;;;;;0.80;0.80;;;9.90;92.00;;;;;;5085367;28;20029;-83
2022/04/07 00:28:05;;;;;;;1.73;1.00;;;9.90;91.90;;;;;;5075256;28;20021;-82
2022/04/07 00:30:31;;;;;;;0.70;0.70;;;9.90;91.70;;;;;;5064756;28;20100;-82
2022/04/07 00:32:56;;;;;;;0.77;0.77;;;10.00;91.60;;;;;;5065011;28;20029;-83
2022/04/07 00:35:25;;;;;;;0.68;0.60;;;9.90;91.60;;;;;;5064105;28;20021;-82
2022/04/07 00:37:51;;;;;;;1.08;0.75;;;9.90;91.50;;;;;;5046710;28;20037;-81
2022/04/07 00:40:18;;;;;;;2.45;0.60;;;9.90;91.40;;;;;;5064465;28;20025;-83
2022/04/07 00:42:51;;;;;;;0.60;0.60;;;9.90;91.40;;;;;;5066663;28;20041;-82
2022/04/07 00:45:26;;;;;;;2.38;0.55;;;9.90;91.40;;;;;;5066412;28;20124;-82
2022/04/07 00:47:51;;;;;;;1.38;0.68;;;9.90;91.50;;;;;;5050215;28;20118;-83
2022/04/07 00:50:19;;;;;;;0.68;0.63;;;9.80;91.60;;;;;;5085193;28;20044;-83
2022/04/07 00:52:49;;;;;;;1.23;0.52;;;9.80;91.70;;;;;;5081668;28;20067;-82
2022/04/07 00:55:15;;;;;;;0.70;0.65;;;9.70;91.80;;;;;;5084181;28;20032;-81
2022/04/07 00:57:41;;;;;;;1.25;0.57;;;9.70;91.90;;;;;;5084656;28;20104;-82
2022/04/07 01:00:10;;;;;;;0.55;0.55;;;9.70;92.10;;;;;;5084078;28;20016;-83
2022/04/07 01:02:36;;;;;;;0.60;0.60;;;9.60;92.10;;;;;;5066061;28;20100;-82
2022/04/07 01:05:04;;;;;;;0.75;0.50;;;9.70;92.10;;;;;;5084682;28;20397;-82
2022/04/07 01:07:32;;;;;;;0.80;0.45;;;9.70;92.10;;;;;;5087790;28;20047;-81
2022/04/07 01:10:12;;;;;;;0.40;0.40;;;9.60;92.10;;;;;;5094889;28;20100;-83
2022/04/07 01:12:38;;;;;;;1.80;0.60;;;9.60;92.20;;;;;;5075416;28;20036;-83
2022/04/07 01:15:06;;;;;;;1.13;0.80;;;9.60;92.40;;;;;;5063052;28;20025;-82
2022/04/07 01:17:34;;;;;;;1.50;0.45;;;9.60;92.40;;;;;;5046921;28;20025;-81
2022/04/07 01:20:01;;;;;;;1.48;0.90;;;9.70;92.40;;;;;;5048914;28;20029;-82
2022/04/07 01:22:26;;;;;;;0.77;0.77;;;9.80;92.10;;;;;;5064485;28;20085;-82
2022/04/07 01:24:52;;;;;;;0.75;0.70;;;9.90;92.00;;;;;;5082328;28;20021;-81
2022/04/07 01:27:19;;;;;;;0.60;0.60;;;9.90;91.90;;;;;;5085159;28;20110;-82
2022/04/07 01:29:45;;;;;;;2.42;0.60;;;9.90;91.90;;;;;;5063267;28;20153;-82
2022/04/07 01:32:17;;;;;;;0.85;0.85;;;9.90;91.90;;;;;;5085214;28;20043;-82
2022/04/07 01:34:44;;;;;;;1.73;0.98;;;10.00;91.80;;;;;;5084763;28;20021;-82
2022/04/07 01:37:11;;;;;;;0.50;0.50;;;10.10;91.70;;;;;;5084776;28;20067;-82
2022/04/07 01:39:40;;;;;;;0.52;0.52;;;10.20;91.70;;;;;;5079580;28;20058;-82
2022/04/07 01:42:08;;;;;;;0.60;0.60;;;10.20;91.60;;;;;;5058893;28;20423;-82
2022/04/07 01:44:38;;;;;;;0.52;0.52;;;10.20;91.50;;;;;;5059439;28;20485;-83
2022/04/07 01:47:05;;;;;;;1.02;0.55;;;10.30;91.40;;;;;;5060580;28;20043;-82
2022/04/07 01:49:35;;;;;;;1.35;0.60;;;10.30;91.40;;;;;;5042907;28;20531;-82
2022/04/07 01:52:04;;;;;;;0.80;0.80;;;10.30;91.40;;;;;;5115719;22;20071;-80
2022/04/07 01:54:31;;;;;;;0.60;0.60;;;10.30;91.30;;;;;;5095566;28;20039;-79
2022/04/07 01:56:57;;;;;;;0.52;0.52;;;10.40;91.20;;;;;;5057681;28;20032;-80
2022/04/07 01:59:23;;;;;;;1.02;0.82;;;10.40;91.10;;;;;;5076640;28;20025;-80
2022/04/07 02:01:48;;;;;;;0.50;0.50;;;10.50;91.00;;;;;;5082349;28;20016;-79
2022/04/07 02:04:14;;;;;;;0.60;0.60;;;10.50;91.00;;;;;;5081955;28;20485;-80
2022/04/07 02:06:40;;;;;;;1.85;0.77;;;10.50;90.80;;;;;;5080208;28;20384;-80
2022/04/07 02:09:05;;;;;;;1.00;0.80;;;10.50;90.60;;;;;;5078622;28;20033;-80
2022/04/07 02:11:32;;;;;;;0.47;0.47;;;10.50;90.70;;;;;;5052030;28;20024;-79
2022/04/07 02:13:58;;;;;;;0.68;0.60;;;10.50;90.80;;;;;;5063942;28;20032;-80
2022/04/07 02:16:24;;;;;;;0.57;0.57;;;10.50;90.90;;;;;;5073191;28;20029;-80
2022/04/07 02:18:50;;;;;;;0.57;0.57;;;10.40;90.90;;;;;;5075147;28;20043;-79
2022/04/07 02:21:16;;;;;;;1.33;0.75;;;10.50;91.00;;;;;;5057961;28;20025;-79
2022/04/07 02:23:44;;;;;;;0.70;0.70;;;10.50;90.80;;;;;;5064407;28;20028;-80
2022/04/07 02:26:14;;;;;;;1.27;0.77;;;10.50;90.80;;;;;;5049455;28;20036;-80
2022/04/07 02:28:40;;;;;;;0.80;0.77;;;10.50;90.80;;;;;;5074082;28;20095;-79
2022/04/07 02:31:07;;;;;;;0.55;0.55;;;10.60;90.80;;;;;;5076280;28;20028;-79
2022/04/07 02:33:34;;;;;;;0.85;0.68;;;10.60;90.80;;;;;;5076229;28;20035;-79
2022/04/07 02:36:01;;;;;;;0.70;0.70;;;10.60;91.20;;;;;;5079314;28;20400;-79
2022/04/07 02:38:27;;;;;;;1.15;0.90;;;10.60;91.70;;;;;;5059384;28;20062;-80
2022/04/07 02:40:53;;;;;;;1.73;0.80;;;10.50;92.40;;;;;;5057088;28;20032;-80
2022/04/07 02:43:18;;;;;;;0.88;0.60;;;10.50;92.70;;;;;;5055442;28;20123;-78
2022/04/07 02:45:44;;;;;;;0.70;0.70;;;10.50;92.90;;;;;;5040416;28;20481;-80
2022/04/07 02:48:10;;;;;;;0.63;0.63;;;10.50;93.00;;;;;;5057646;28;20198;-79
2022/04/07 02:50:35;;;;;;;0.88;0.68;;;10.50;93.10;;;;;;5066992;28;20021;-78
2022/04/07 02:53:01;;;;;;;1.50;0.85;;;10.50;93.10;;;;;;5054907;28;20041;-79
2022/04/07 02:55:27;;;;;;;1.85;0.80;;;10.50;93.10;;;;;;5055501;28;20059;-79
2022/04/07 02:57:57;;;;;;;1.90;0.80;;;10.50;93.10;;;;;;5055578;28;20562;-80
2022/04/07 03:00:22;;;;;;;0.75;0.75;;;10.50;93.00;;;;;;5047656;28;20107;-79
2022/04/07 03:02:48;;;;;;;1.08;1.00;;;10.50;93.10;;;;;;5075720;28;20382;-80
2022/04/07 03:05:15;;;;;;;0.77;0.77;;;10.50;93.20;;;;;;5076713;28;20099;-79
2022/04/07 03:07:40;;;;;;;0.80;0.80;;;10.40;93.20;;;;;;5075633;28;20024;-79
2022/04/07 03:10:06;;;;;;;0.70;0.70;;;10.40;93.10;;;;;;5075401;28;20033;-80
2022/04/07 03:12:32;;;;;;;1.58;0.70;;;10.40;93.20;;;;;;5075265;28;20024;-79
2022/04/07 03:14:58;;;;;;;0.60;0.60;;;10.40;93.10;;;;;;5076280;28;20108;-80
2022/04/07 03:17:27;;;;;;;0.57;0.57;;;10.30;93.00;;;;;;5077127;28;20474;-80
2022/04/07 03:19:52;;;;;;;1.48;0.85;;;10.20;93.10;;;;;;5075279;28;20088;-80
2022/04/07 03:22:19;;;;;;;1.98;0.70;;;10.10;93.30;;;;;;5035855;28;20052;-81
2022/04/07 03:24:45;;;;;;;1.23;0.80;;;10.00;93.50;;;;;;5055489;28;20025;-78
2022/04/07 03:27:11;;;;;;;0.70;0.70;;;9.90;93.60;;;;;;5055553;28;20040;-78
2022/04/07 03:29:38;;;;;;;0.65;0.65;;;9.90;93.70;;;;;;5054371;28;20029;-79
2022/04/07 03:32:05;;;;;;;1.00;0.47;;;9.80;93.30;;;;;;5072435;28;20092;-79
2022/04/07 03:34:31;;;;;;;0.50;0.50;;;9.90;92.90;;;;;;5077717;28;20028;-80
2022/04/07 03:36:57;;;;;;;0.70;0.60;;;9.90;92.80;;;;;;5078548;28;20025;-78
2022/04/07 03:39:23;;;;;;;0.75;0.50;;;9.80;93.00;;;;;;5075639;28;20083;-79
2022/04/07 03:41:48;;;;;;;0.63;0.45;;;9.70;93.10;;;;;;5076545;28;20489;-79
2022/04/07 03:44:14;;;;;;;0.47;0.47;;;9.60;93.30;;;;;;5078058;28;20025;-78
2022/04/07 03:46:40;;;;;;;0.88;0.60;;;9.60;93.10;;;;;;5069443;28;20025;-79
2022/04/07 03:49:06;;;;;;;1.95;0.65;;;9.60;93.20;;;;;;5084243;28;20534;-79
2022/04/07 03:51:31;;;;;;;0.47;0.40;;;9.50;93.30;;;;;;5069155;28;20079;-82
2022/04/07 03:53:57;;;;;;;0.47;0.38;;;9.50;93.40;;;;;;5059565;28;20080;-79
2022/04/07 03:56:23;;;;;;;0.55;0.43;;;9.40;93.20;;;;;;5061221;28;20056;-80
2022/04/07 03:58:49;;;;;;;0.80;0.63;;;9.40;93.30;;;;;;5061114;28;20025;-80
2022/04/07 04:01:14;;;;;;;0.40;0.40;;;9.30;93.40;;;;;;5061617;28;20032;-81
2022/04/07 04:03:40;;;;;;;0.35;0.35;;;9.30;93.50;;;;;;5061748;28;20055;-81
2022/04/07 04:06:06;;;;;;;0.50;0.47;;;9.30;93.60;;;;;;5043927;28;20056;-80
2022/04/07 04:08:31;;;;;;;0.55;0.43;;;9.20;93.70;;;;;;5069549;28;20504;-80
2022/04/07 04:10:57;;;;;;;0.63;0.52;;;9.10;93.80;;;;;;5062748;28;20048;-80
2022/04/07 04:13:24;;;;;;;0.60;0.60;;;9.10;94.00;;;;;;5076411;28;20024;-81
2022/04/07 04:15:50;;;;;;;3.40;0.52;;;9.10;94.10;;;;;;5080806;28;20434;-80
2022/04/07 04:18:15;;;;;;;1.33;0.52;;;9.10;94.30;;;;;;5079957;28;20103;-81
2022/04/07 04:20:41;;;;;;;0.90;0.50;;;9.00;94.20;;;;;;5058144;28;20017;-80
2022/04/07 04:23:07;;;;;;;0.50;0.50;;;9.00;94.30;;;;;;5061025;28;20039;-80
2022/04/07 04:25:33;;;;;;;0.80;0.50;;;9.00;94.30;;;;;;5060997;28;20017;-81
2022/04/07 04:27:58;;;;;;;0.43;0.43;;;9.00;94.40;;;;;;5060570;28;20691;-82
2022/04/07 04:30:25;;;;;;;0.50;0.50;;;9.00;94.40;;;;;;5060966;28;20029;-80
2022/04/07 04:32:51;;;;;;;2.40;0.43;;;9.00;94.40;;;;;;5051429;28;20112;-82
2022/04/07 04:35:17;;;;;;;1.45;0.47;;;9.00;94.00;;;;;;5089872;28;20028;-81
2022/04/07 04:37:42;;;;;;;0.70;0.50;;;9.10;93.90;;;;;;5090217;28;20031;-81
2022/04/07 04:40:08;;;;;;;0.40;0.40;;;9.10;93.60;;;;;;5073265;28;20031;-81
2022/04/07 04:42:34;;;;;;;0.73;0.40;;;9.20;93.20;;;;;;5095297;28;20025;-82
2022/04/07 04:45:00;;;;;;;0.60;0.60;;;9.20;93.00;;;;;;5095889;28;20008;-82
2022/04/07 04:47:25;;;;;;;0.45;0.45;;;9.20;93.00;;;;;;5095678;28;20024;-81
2022/04/07 04:49:51;;;;;;;0.32;0.32;;;9.20;92.80;;;;;;5095775;28;20025;-81
2022/04/07 04:52:16;;;;;;;2.13;0.60;;;9.20;92.60;;;;;;5069248;28;20036;-82
2022/04/07 04:54:42;;;;;;;0.90;0.70;;;9.20;92.40;;;;;;5053269;28;20037;-80
2022/04/07 04:57:08;;;;;;;2.72;0.90;;;9.20;92.50;;;;;;5045534;28;20456;-82
2022/04/07 04:59:34;;;;;;;2.35;0.30;;;9.20;92.20;;;;;;5059172;28;20029;-82
2022/04/07 05:02:04;;;;;;;1.33;0.57;;;9.20;92.20;;;;;;5059529;28;20060;-81
2022/04/07 05:04:30;;;;;;;1.08;0.30;;;9.30;92.20;;;;;;5070746;28;20021;-83
2022/04/07 05:06:56;;;;;;;0.63;0.40;;;9.20;92.10;;;;;;5080604;28;20040;-81
2022/04/07 05:09:21;;;;;;;0.60;0.40;;;9.20;91.90;;;;;;5080101;28;20111;-83
2022/04/07 05:11:47;;;;;;;7.00;1.50;;;9.30;91.90;;;;;;5081257;28;20037;-83
2022/04/07 05:14:13;;;;;;;2.75;1.05;;;9.30;91.80;;;;;;5081290;28;20032;-83
2022/04/07 05:16:39;;;;;;;1.85;0.60;;;9.30;91.70;;;;;;5084025;28;20039;-81
2022/04/07 05:19:04;;;;;;;1.75;0.80;;;9.30;91.50;;;;;;5097316;28;20024;-83
2022/04/07 05:21:30;;;;;;;2.72;0.93;;;9.40;91.40;;;;;;5078760;28;20036;-81
2022/04/07 05:23:56;;;;;;;1.30;0.50;;;9.40;91.10;;;;;;5060491;28;20131;-81
2022/04/07 05:26:21;;;;;;;0.68;0.40;;;9.50;90.80;;;;;;5060201;28;20486;-82
2022/04/07 05:28:47;;;;;;;1.05;0.47;;;9.40;90.80;;;;;;5064107;28;20009;-84
2022/04/07 05:31:13;;;;;;;1.30;0.38;;;9.50;90.60;;;;;;5075875;28;20017;-84
2022/04/07 05:33:39;;;;;;;1.00;0.60;;;9.50;90.70;;;;;;5059388;28;20013;-84
2022/04/07 05:36:04;;;;;;;0.90;0.63;;;9.40;90.70;;;;;;5089929;28;20036;-83
2022/04/07 05:38:30;;;;;;;2.40;0.73;;;9.40;90.80;;;;;;5063430;28;20043;-84
2022/04/07 05:40:56;;;;;;;1.63;0.60;;;9.50;90.90;;;;;;5081251;28;20025;-83
2022/04/07 05:43:22;;;;;;;0.40;0.40;;;9.60;90.60;;;;;;5066044;28;20020;-83
2022/04/07 05:45:49;;;;;;;0.90;0.50;;;9.60;90.60;;;;;;5059805;28;20020;-82
2022/04/07 05:48:15;;;;;;;2.10;0.40;;;9.70;90.60;;;;;;5059248;28;20032;-81
2022/04/07 05:50:41;;;;;;;0.82;0.52;;;9.80;90.50;;;;;;5074911;28;20029;-82
2022/04/07 05:53:10;;;;;;;0.80;0.60;;;9.90;90.20;;;;;;5048809;28;20067;-83
2022/04/07 05:55:36;;;;;;;1.27;0.75;;;9.90;90.00;;;;;;5058804;28;20023;-83
2022/04/07 05:58:07;;;;;;;2.78;0.55;;;10.00;89.80;;;;;;5076217;28;20024;-81
2022/04/07 06:00:33;;;;;;;1.33;0.60;;;10.10;89.50;;;;;;5079119;28;20036;-81
2022/04/07 06:02:59;;;;;;;1.67;0.90;;;10.10;89.20;;;;;;5079865;28;20032;-82
2022/04/07 06:05:25;;;;;;;1.00;0.60;;;10.10;89.30;;;;;;5079205;28;20024;-82
2022/04/07 06:08:01;;;;;;;1.88;0.60;;;10.10;89.50;;;;;;5080870;28;20024;-81
2022/04/07 06:10:32;;;;;;;0.30;0.30;;;10.20;89.30;;;;;;5055948;28;20508;-82
2022/04/07 06:12:58;;;;;;;0.65;0.65;;;10.20;89.10;;;;;;5039772;28;20339;-81
2022/04/07 06:15:24;;;;;;;0.50;0.50;;;10.30;89.00;;;;;;5040484;28;20575;-82
2022/04/07 06:17:50;;;;;;;0.90;0.60;;;10.40;88.60;;;;;;5059479;28;20458;-81
2022/04/07 06:20:16;;;;;;;1.27;0.57;;;10.60;87.50;;;;;;5032764;28;20105;-81
2022/04/07 06:22:44;;;;;;;0.40;0.40;;;10.70;87.30;;;;;;5042994;28;20021;-82
2022/04/07 06:25:10;;;;;;;1.65;0.45;;;10.80;87.00;;;;;;5060794;28;20021;-82
2022/04/07 06:27:41;;;;;;;0.32;0.32;;;10.90;86.00;;;;;;5074402;28;20031;-81
2022/04/07 06:30:12;;;;;;;0.93;0.40;;;10.80;85.50;;;;;;5072508;28;20047;-82
2022/04/07 06:32:38;;;;;;;0.43;0.43;;;10.80;85.70;;;;;;5060261;28;20049;-81
2022/04/07 06:35:05;;;;;;;1.70;0.60;;;10.70;85.90;;;;;;5062691;28;20037;-80
2022/04/07 06:37:31;;;;;;;1.30;0.40;;;10.70;86.00;;;;;;5062922;28;20075;-81
2022/04/07 06:40:01;;;;;;;0.35;0.35;;;10.50;86.40;;;;;;5043544;28;20021;-82
2022/04/07 06:42:27;;;;;;;2.42;0.60;;;10.40;86.40;;;;;;5061793;28;20032;-81
2022/04/07 06:44:55;;;;;;;0.40;0.40;;;10.40;86.30;;;;;;5045023;28;20021;-82
2022/04/07 06:47:22;;;;;;;0.77;0.60;;;10.40;86.20;;;;;;5051489;28;20445;-82
2022/04/07 06:49:52;;;;;;;0.65;0.50;;;10.40;86.10;;;;;;5065034;28;20059;-81
2022/04/07 06:52:21;;;;;;;0.88;0.40;;;10.50;85.70;;;;;;5063622;28;20063;-82
2022/04/07 06:54:46;;;;;;;0.40;0.40;;;10.50;84.80;;;;;;5060749;28;20052;-82
2022/04/07 06:57:24;;;;;;;1.80;0.30;;;10.60;84.50;;;;;;5045392;28;20385;-81
2022/04/07 06:59:50;;;;;;;0.30;0.30;;;10.60;84.20;;;;;;5068713;28;20048;-82
2022/04/07 07:02:19;;;;;;;0.77;0.30;;;10.70;83.80;;;;;;5059786;28;20021;-82
2022/04/07 07:04:49;;;;;;;0.17;0.17;;;10.80;82.80;;;;;;5060149;28;20036;-82
2022/04/07 07:07:16;;;;;;;0.60;0.40;;;10.90;82.20;;;;;;5059587;28;20095;-83
2022/04/07 07:09:42;;;;;;;1.02;0.50;;;11.00;81.60;;;;;;5045892;28;20107;-83
2022/04/07 07:12:08;;;;;;;0.50;0.30;;;11.10;79.10;;;;;;5043859;28;20079;-81
2022/04/07 07:14:33;;;;;;;3.10;0.50;;;11.20;77.30;;;;;;5061080;28;20027;-82
2022/04/07 07:16:59;;;;;;;0.45;0.20;;;11.30;76.90;;;;;;5060524;28;20081;-82
2022/04/07 07:19:28;;;;;;;1.80;0.28;;;11.40;76.10;;;;;;5041789;28;20028;-83
2022/04/07 07:21:54;;;;;;;1.00;0.22;;;11.60;75.20;;;;;;5060373;28;20017;-83
2022/04/07 07:24:20;;;;;;;1.08;0.20;;;11.60;75.00;;;;;;5046052;28;20025;-83
2022/04/07 07:26:46;;;;;;;0.90;0.30;;;11.80;74.20;;;;;;5061050;28;20025;-83
2022/04/07 07:29:12;;;;;;;0.65;0.30;;;11.80;72.40;;;;;;5057553;28;20032;-81
2022/04/07 07:31:37;;;;;;;0.20;0.20;;;12.00;72.00;;;;;;5082924;28;20020;-83
2022/04/07 07:34:03;;;;;;;1.08;0.40;;;12.10;72.10;;;;;;5065392;28;20040;-81
2022/04/07 07:36:30;;;;;;;0.30;0.10;;;12.10;70.80;;;;;;5083039;28;20373;-82
2022/04/07 07:38:56;;;;;;;3.03;0.30;;;12.30;70.50;;;;;;5078032;28;20025;-83
2022/04/07 07:41:22;;;;;;;2.13;0.20;;;12.40;69.30;;;;;;5062459;28;20034;-82
2022/04/07 07:43:47;;;;;;;3.90;0.20;;;12.50;68.60;;;;;;5062773;28;20136;-82
2022/04/07 07:46:17;;;;;;;4.38;0.52;;;12.80;67.70;;;;;;5044842;28;20049;-82
2022/04/07 07:48:43;;;;;;;0.52;0.20;;;12.90;66.40;;;;;;5065599;28;20021;-83
2022/04/07 07:51:10;;;;;;;0.28;0.13;;;13.00;65.90;;;;;;5087915;22;20064;-85
2022/04/07 07:53:37;;;;;;;1.75;0.45;;;13.10;65.40;;;;;;5068914;28;20363;-84
2022/04/07 07:56:28;;;;;;;0.30;0.30;;;13.10;64.80;;;;;;5075884;22;20020;-84
2022/04/07 07:59:01;;;;;;;2.53;0.47;;;13.30;64.40;;;;;;5069425;28;20392;-84
2022/04/07 08:01:35;;;;;;;1.33;0.30;;;13.50;63.40;;;;;;5081452;28;20036;-86
2022/04/07 08:04:01;;;;;;;0.30;0.20;;;13.60;62.80;;;;;;5092875;28;20019;-85
2022/04/07 08:06:27;;;;;;;0.32;0.20;;;13.60;62.60;;;;;;5079291;28;20399;-86
2022/04/07 08:08:57;;;;;;;1.38;0.40;;;13.80;61.80;;;;;;5091687;28;20078;-83
2022/04/07 08:11:22;;;;;;;0.30;0.30;;;14.00;60.70;;;;;;5093723;28;20472;-84
2022/04/07 08:13:48;;;;;;;3.72;0.57;;;14.00;60.40;;;;;;5091510;28;20020;-83
2022/04/07 08:16:14;;;;;;;1.30;0.35;;;14.20;59.60;;;;;;5092642;28;20058;-85
2022/04/07 08:18:40;;;;;;;0.60;0.50;;;14.30;58.70;;;;;;5078401;28;20096;-84
2022/04/07 08:21:06;;;;;;;6.00;1.15;;;14.20;58.20;;;;;;5074948;28;20088;-84
2022/04/07 08:23:31;;;;;;;0.47;0.47;;;14.30;58.20;;;;;;5074671;28;20137;-84
2022/04/07 08:25:57;;;;;;;2.53;0.60;;;14.40;57.70;;;;;;5092873;28;20059;-84
2022/04/07 08:28:23;;;;;;;0.60;0.40;;;14.50;57.20;;;;;;5095064;28;20021;-83
2022/04/07 08:30:49;;;;;;;0.30;0.30;;;14.60;56.70;;;;;;5098810;28;20093;-85
2022/04/07 08:33:14;;;;;;;0.95;0.50;;;14.80;55.90;;;;;;5097578;28;20027;-85
2022/04/07 08:35:40;;;;;;;4.95;0.43;;;14.80;56.00;;;;;;5098094;28;20100;-84
2022/04/07 08:38:06;;;;;;;2.13;0.40;;;14.90;55.80;;;;;;5092664;28;20028;-84
2022/04/07 08:40:36;;;;;;;3.75;0.65;;;15.10;55.70;;;;;;5077935;28;20075;-83
2022/04/07 08:43:08;;;;;;;1.25;0.30;;;15.30;54.70;;;;;;5095905;28;20017;-85
2022/04/07 08:45:35;;;;;;;;;;;15.40;54.40;;;;;;5078264;28;20020;-84
2022/04/07 08:48:02;;;;;;;0.30;0.28;;;15.60;54.00;;;;;;5075140;28;19927;-83
2022/04/07 08:50:33;;;;;;;0.70;0.30;;;15.80;53.00;;;;;;5075592;28;20480;-84
2022/04/07 08:53:02;;;;;;;0.20;0.20;;;15.80;52.10;;;;;;5075607;28;20017;-83
2022/04/07 08:55:28;;;;;;;2.60;0.35;;;15.80;51.70;;;;;;5059627;28;20047;-85
2022/04/07 08:57:53;;;;;;;2.00;0.28;;;15.80;51.40;;;;;;5076157;28;20080;-84
2022/04/07 09:00:20;;;;;;;0.40;0.20;;;15.90;51.80;;;;;;5067735;28;20028;-83
2022/04/07 09:02:46;;;;;;;0.75;0.20;;;16.10;51.40;;;;;;5068495;28;20086;-83
2022/04/07 09:05:12;;;;;;;1.13;0.30;;;16.30;50.30;;;;;;5086634;28;20036;-83
2022/04/07 09:07:38;;;;;;;0.47;0.30;;;16.40;49.60;;;;;;5092052;28;20019;-80
2022/04/07 09:10:05;;;;;;;1.02;0.40;;;16.50;50.00;;;;;;5114608;28;20043;-84
2022/04/07 09:12:31;;;;;;;2.65;0.40;;;16.60;49.80;;;;;;5100050;28;20005;-81
2022/04/07 09:14:58;;;;;;;0.30;0.30;;;16.70;49.20;;;;;;5097639;28;20085;-83
2022/04/07 09:17:30;;;;;;;2.17;0.60;;;16.80;49.40;;;;;;5097876;28;20082;-82
2022/04/07 09:19:56;;;;;;;2.38;0.88;;;17.10;48.40;;;;;;5080536;28;20021;-82
2022/04/07 09:22:34;;;;;;;0.80;0.70;;;17.30;48.10;;;;;;5098207;28;20093;-82
2022/04/07 09:25:07;;;;;;;1.20;0.80;;;17.50;48.00;;;;;;5097637;28;20031;-83
2022/04/07 09:27:33;;;;;;;2.55;0.47;;;17.70;47.30;;;;;;5095491;28;20021;-82
2022/04/07 09:30:00;;;;;;;2.67;0.40;;;17.70;46.70;;;;;;5096293;28;20025;-82
2022/04/07 09:32:27;;;;;;;0.57;0.52;;;17.60;47.10;;;;;;5097876;28;20012;-83
2022/04/07 09:34:57;;;;;;;0.57;0.20;;;17.50;47.10;;;;;;5096518;28;20033;-84
2022/04/07 09:37:27;;;;;;;3.40;0.28;;;17.30;46.90;;;;;;5099886;28;20091;-82
2022/04/07 09:40:13;;;;;;;1.15;0.57;;;17.00;47.80;;;;;;5118044;28;20020;-82
2022/04/07 09:42:41;;;;;;;0.50;0.32;;;16.60;47.70;;;;;;5101274;28;20049;-82
2022/04/07 09:45:12;;;;;;;1.60;0.40;;;16.70;48.30;;;;;;5118109;28;20016;-82
2022/04/07 09:47:42;;;;;;;0.57;0.30;;;16.80;48.00;;;;;;5117469;28;20012;-82
2022/04/07 09:50:22;;;;;;;0.68;0.43;;;17.10;47.50;;;;;;5118202;28;20020;-83
2022/04/07 09:53:04;;;;;;;2.42;0.35;;;17.40;47.30;;;;;;5077645;28;20025;-82
2022/04/07 09:55:30;;;;;;;0.82;0.30;;;17.60;46.80;;;;;;5068747;28;20021;-84
2022/04/07 09:57:57;;;;;;;1.25;0.40;;;18.00;46.00;;;;;;5078125;28;20083;-82
2022/04/07 10:00:24;;;;;;;9.50;0.50;;;18.50;45.20;;;;;;5092145;28;20036;-81
2022/04/07 10:02:50;;;;;;;1.23;0.30;;;18.70;44.50;;;;;;5087781;28;20036;-81
2022/04/07 10:05:16;;;;;;;0.43;0.40;;;18.90;44.30;;;;;;5069668;28;20021;-83
2022/04/07 10:07:42;;;;;;;2.00;0.60;;;19.30;44.00;;;;;;5098267;28;20043;-82
2022/04/07 10:10:08;;;;;;;1.15;0.52;;;19.50;43.00;;;;;;5117452;28;20020;-83
2022/04/07 10:12:34;;;;;;;1.13;0.55;;;19.30;43.20;;;;;;5115741;28;20095;-83
2022/04/07 10:15:02;;;;;;;0.68;0.43;;;18.70;43.70;;;;;;5104341;28;20032;-82
2022/04/07 10:17:28;;;;;;;1.50;0.40;;;18.30;44.80;;;;;;5100333;28;20016;-82
2022/04/07 10:20:02;;;;;;;1.20;0.38;;;18.20;44.70;;;;;;5080160;28;20538;-83
2022/04/07 10:22:40;;;;;;;0.60;0.50;;;18.10;45.30;;;;;;5063040;28;20040;-82
2022/04/07 10:25:06;;;;;;;0.30;0.30;;;18.30;45.80;;;;;;5081162;28;20029;-82
2022/04/07 10:27:52;;;;;;;0.65;0.43;;;18.40;44.60;;;;;;5080803;28;20021;-81
2022/04/07 10:30:18;;;;;;;1.05;0.50;;;18.40;45.10;;;;;;5098434;28;20032;-82
2022/04/07 10:32:45;;;;;;;1.95;0.70;;;18.50;45.00;;;;;;5101329;28;20051;-81
2022/04/07 10:35:31;;;;;;;5.25;0.52;;;18.70;44.50;;;;;;5101206;28;20027;-81
2022/04/07 10:37:58;;;;;;;0.57;0.40;;;19.00;44.10;;;;;;5099464;28;20020;-81
2022/04/07 10:40:49;;;;;;;0.77;0.57;;;19.10;43.90;;;;;;5064060;28;20078;-83
2022/04/07 10:43:17;;;;;;;0.85;0.40;;;19.10;43.80;;;;;;5080214;28;20027;-81
2022/04/07 10:46:09;;;;;;;0.57;0.40;;;19.20;43.00;;;;;;5079410;28;20056;-81
2022/04/07 10:48:35;;;;;;;0.98;0.50;;;19.30;42.80;;;;;;5064572;28;20052;-80
2022/04/07 10:51:03;;;;;;;1.92;0.40;;;19.50;43.10;;;;;;5075146;28;20071;-81
2022/04/07 10:53:39;;;;;;;0.40;0.38;;;19.60;42.50;;;;;;5079771;28;20031;-82
2022/04/07 10:56:10;;;;;;;0.45;0.45;;;19.60;42.60;;;;;;5099135;28;20103;-82
2022/04/07 10:58:38;;;;;;;1.65;0.30;;;19.30;42.30;;;;;;5098480;28;20111;-81
2022/04/07 11:01:04;;;;;;;5.18;0.70;;;18.80;42.60;;;;;;5100150;28;20071;-81
2022/04/07 11:03:30;;;;;;;0.95;0.40;;;18.40;43.10;;;;;;5098670;28;20040;-81
2022/04/07 11:06:00;;;;;;;0.65;0.40;;;18.10;44.00;;;;;;5083017;28;20024;-82
2022/04/07 11:08:26;;;;;;;3.50;0.70;;;18.00;44.40;;;;;;5098957;28;20034;-82
2022/04/07 11:14:25;;;;;;;2.05;0.60;;;18.00;44.60;;;;;;5094548;28;20055;-84
2022/04/07 11:16:51;;;;;;;6.03;2.03;;;17.80;44.40;;;;;;5079188;28;20481;-81
2022/04/07 11:19:36;;;;;;;0.50;0.50;;;17.50;44.90;;;;;;5092991;28;20032;-81
2022/04/07 11:22:09;;;;;;;2.13;0.93;;;17.40;45.10;;;;;;5096030;28;20025;-81
2022/04/07 11:24:43;;;;;;;0.40;0.30;;;17.40;45.60;;;;;;5096348;28;20029;-82
2022/04/07 11:27:31;;;;;;;0.73;0.30;;;17.40;45.70;;;;;;5096658;28;20081;-81
2022/04/07 11:30:09;;;;;;;2.80;0.68;;;17.60;45.80;;;;;;5095880;28;20013;-82
2022/04/07 11:32:38;;;;;;;2.72;0.30;;;17.80;45.60;;;;;;5046280;28;20108;-81
2022/04/07 11:35:20;;;;;;;1.30;0.35;;;17.90;45.30;;;;;;5081660;28;20087;-82
2022/04/07 11:37:45;;;;;;;1.45;0.47;;;18.10;45.20;;;;;;5076760;28;20044;-81
2022/04/07 11:40:11;;;;;;;2.15;0.45;;;18.00;45.30;;;;;;5078180;28;20029;-82
2022/04/07 11:42:39;;;;;;;0.70;0.30;;;17.80;45.40;;;;;;5079604;28;20076;-82
2022/04/07 11:45:08;;;;;;;7.43;1.13;;;17.60;45.90;;;;;;5079284;28;20024;-82
2022/04/07 11:47:37;;;;;;;1.58;0.50;;;17.50;46.20;;;;;;5077014;28;20032;-82
2022/04/07 11:50:07;;;;;;;3.22;2.30;;;17.50;46.70;;;;;;5079733;28;20047;-81
2022/04/07 11:52:35;;;;;;;0.75;0.40;;;17.50;46.50;;;;;;5064906;28;20028;-80
2022/04/07 11:55:05;;;;;;;1.20;1.08;;;17.80;46.10;;;;;;5079560;28;20048;-81
2022/04/07 11:57:32;;;;;;;8.68;5.28;;;18.20;45.70;;;;;;5078584;28;20032;-83
2022/04/07 12:00:00;;;;;;;4.28;1.70;;;18.60;45.50;;;;;;5060447;28;20682;-82
2022/04/07 12:02:27;;;;;;;1.83;1.17;;;19.00;44.50;;;;;;5079799;28;20037;-80
2022/04/07 12:05:05;;;;;;;2.88;0.60;;;19.20;44.60;;;;;;5079936;28;20388;-83
2022/04/07 12:07:31;;;;;;;4.03;1.63;;;19.40;44.20;;;;;;5090024;28;20033;-81
2022/04/07 12:10:06;;;;;;;3.15;1.65;;;19.20;44.10;;;;;;5095395;28;20023;-82
2022/04/07 12:12:33;;;;;;;3.55;1.10;;;19.20;44.10;;;;;;5094624;28;20250;-82
2022/04/07 12:14:59;;;;;;;1.52;1.40;;;19.20;44.10;;;;;;5083620;28;20043;-81
2022/04/07 12:17:25;;;;;;;1.65;1.23;;;19.20;44.30;;;;;;5103612;28;20032;-82
2022/04/07 12:19:50;;;;;;;7.80;1.45;;;19.10;44.50;;;;;;5103128;28;20024;-81
2022/04/07 12:22:17;;;;;;;0.38;0.38;;;19.20;44.30;;;;;;5097476;28;20024;-82
2022/04/07 12:25:04;;;;;;;1.20;0.52;;;19.30;43.90;;;;;;5071967;28;20058;-82
2022/04/07 12:27:32;;;;;;;1.10;0.65;;;19.10;44.30;;;;;;5092494;28;20017;-82
2022/04/07 12:29:59;;;;;;;5.30;0.40;;;18.90;44.10;;;;;;5089266;28;20020;-81
2022/04/07 12:32:26;;;;;;;2.35;0.55;;;18.60;44.70;;;;;;5091883;28;20024;-82
2022/04/07 12:34:51;;;;;;;0.50;0.47;;;18.30;45.10;;;;;;5106181;28;20074;-83
2022/04/07 12:37:36;;;;;;;1.60;0.20;;;17.90;46.30;;;;;;5108941;28;20024;-83
2022/04/07 12:40:04;;;;;;;1.90;0.28;;;17.60;46.80;;;;;;5089959;28;20051;-82
2022/04/07 12:42:30;;;;;;;0.20;0.20;;;17.50;47.20;;;;;;5105376;28;20019;-81
2022/04/07 12:45:06;;;;;;;1.77;0.70;;;17.40;47.30;;;;;;5105717;28;20111;-81
2022/04/07 12:47:32;;;;;;;1.35;0.38;;;17.30;47.70;;;;;;5105671;28;20028;-82
2022/04/07 12:50:03;;;;;;;2.38;0.50;;;17.20;48.10;;;;;;5110353;28;20042;-81
2022/04/07 12:52:41;;;;;;;3.10;0.45;;;17.30;48.30;;;;;;5113725;28;20330;-81
2022/04/07 12:55:15;;;;;;;0.22;0.22;;;17.40;48.20;;;;;;5071173;28;20078;-81
2022/04/07 12:57:42;;;;;;;0.30;0.30;;;17.60;47.40;;;;;;5064413;28;20052;-81